You are not logged in, Click here to log in
機場資訊:EDDF Welcome to Taiwan Airways 台灣虛擬航空
ICAO: EDDF Country: 德國黑森邦法蘭克福
Latitude: 50.0264 Longitude: 8.54313
Total Arrivals: 34 Total Departures: 35
Latest Arrival: CX2067 (OMDW-EDDF)KE. CHIH-HAO Latest Departure: CX2067 (EDDF-LFPG)KE. CHIH-HAO
Scenery:
METAR : EDDF 211250Z 20008KT 9999 -RA FEW022 16/12 Q1019 NOSIG

法蘭克福機場FRA